createdAt,value
2023-05-10T00:00:35.857Z,1001.80
2023-05-10T00:01:35.828Z,1001.84
2023-05-10T00:02:35.874Z,1001.88
2023-05-10T00:03:35.862Z,1001.84
2023-05-10T00:04:35.771Z,1001.80
2023-05-10T00:05:35.746Z,1001.81
2023-05-10T00:06:35.727Z,1001.83
2023-05-10T00:07:35.695Z,1001.80
2023-05-10T00:08:35.695Z,1001.79
2023-05-10T00:09:35.662Z,1001.81
2023-05-10T00:10:35.636Z,1001.75
2023-05-10T00:11:35.616Z,1001.78
2023-05-10T00:12:35.626Z,1001.74
2023-05-10T00:13:35.573Z,1001.75
2023-05-10T00:14:35.686Z,1001.75
2023-05-10T00:15:35.526Z,1001.77
2023-05-10T00:16:35.517Z,1001.76
2023-05-10T00:17:35.490Z,1001.74
2023-05-10T00:18:35.468Z,1001.76
2023-05-10T00:19:35.443Z,1001.75
2023-05-10T00:20:35.414Z,1001.74
2023-05-10T00:21:35.411Z,1001.76
2023-05-10T00:22:35.377Z,1001.75
2023-05-10T00:23:35.353Z,1001.69
2023-05-10T00:24:35.329Z,1001.72
2023-05-10T00:25:35.306Z,1001.70
2023-05-10T00:26:35.295Z,1001.71
2023-05-10T00:27:35.260Z,1001.66
2023-05-10T00:28:35.251Z,1001.70
2023-05-10T00:29:35.220Z,1001.73
2023-05-10T00:30:35.234Z,1001.70
2023-05-10T00:31:35.192Z,1001.74
2023-05-10T00:32:35.195Z,1001.70
2023-05-10T00:33:35.131Z,1001.69
2023-05-10T00:34:35.133Z,1001.71
2023-05-10T00:35:35.092Z,1001.70
2023-05-10T00:36:35.071Z,1001.66
2023-05-10T00:37:35.046Z,1001.64
2023-05-10T00:38:35.046Z,1001.66
2023-05-10T00:39:34.997Z,1001.66
2023-05-10T00:40:34.994Z,1001.63
2023-05-10T00:41:34.964Z,1001.63
2023-05-10T00:42:34.946Z,1001.66
2023-05-10T00:43:34.920Z,1001.65
2023-05-10T00:44:34.913Z,1001.64
2023-05-10T00:45:34.882Z,1001.61
2023-05-10T00:46:34.917Z,1001.64
2023-05-10T00:47:34.884Z,1001.60
2023-05-10T00:48:34.809Z,1001.61
2023-05-10T00:49:34.791Z,1001.62
2023-05-10T00:50:34.791Z,1001.65
2023-05-10T00:51:34.741Z,1001.64
2023-05-10T00:52:34.747Z,1001.65
2023-05-10T00:53:34.698Z,1001.64
2023-05-10T00:54:34.680Z,1001.65
2023-05-10T00:55:34.652Z,1001.64
2023-05-10T00:56:34.636Z,1001.64
2023-05-10T00:57:34.608Z,1001.62
2023-05-10T00:58:34.588Z,1001.62
2023-05-10T00:59:34.564Z,1001.65
2023-05-10T01:00:34.560Z,1001.59
2023-05-10T01:01:34.556Z,1001.67
2023-05-10T01:02:34.647Z,1001.64
2023-05-10T01:03:34.607Z,1001.62
2023-05-10T01:04:34.480Z,1001.64
2023-05-10T01:05:34.433Z,1001.62
2023-05-10T01:06:34.414Z,1001.60
2023-05-10T01:07:34.388Z,1001.60
2023-05-10T01:08:34.375Z,1001.61
2023-05-10T01:09:34.352Z,1001.61
2023-05-10T01:10:34.327Z,1001.63
2023-05-10T01:11:34.309Z,1001.63
2023-05-10T01:12:34.317Z,1001.64
2023-05-10T01:13:34.262Z,1001.62
2023-05-10T01:14:34.241Z,1001.63
2023-05-10T01:15:34.366Z,1001.64
2023-05-10T01:16:34.300Z,1001.61
2023-05-10T01:17:34.219Z,1001.66
2023-05-10T01:18:34.187Z,1001.65
2023-05-10T01:19:34.132Z,1001.65
2023-05-10T01:20:34.126Z,1001.62
2023-05-10T01:21:34.086Z,1001.66
2023-05-10T01:22:34.072Z,1001.66
2023-05-10T01:23:34.047Z,1001.69
2023-05-10T01:24:34.034Z,1001.71
2023-05-10T01:25:34.003Z,1001.68
2023-05-10T01:26:33.989Z,1001.71
2023-05-10T01:27:33.962Z,1001.68
2023-05-10T01:28:33.935Z,1001.72
2023-05-10T01:29:33.915Z,1001.74
2023-05-10T01:30:33.898Z,1001.73
2023-05-10T01:31:33.884Z,1001.78
2023-05-10T01:32:33.875Z,1001.78
2023-05-10T01:33:33.828Z,1001.75
2023-05-10T01:34:33.835Z,1001.80
2023-05-10T01:35:33.781Z,1001.76
2023-05-10T01:36:33.772Z,1001.76
2023-05-10T01:37:33.759Z,1001.77
2023-05-10T01:38:33.720Z,1001.81
2023-05-10T01:39:33.694Z,1001.83
2023-05-10T01:40:33.680Z,1001.83
2023-05-10T01:41:33.645Z,1001.82
2023-05-10T01:42:33.628Z,1001.81
2023-05-10T01:43:33.615Z,1001.85
2023-05-10T01:44:33.596Z,1001.82
2023-05-10T01:45:33.558Z,1001.83
2023-05-10T01:46:33.562Z,1001.80
2023-05-10T01:47:33.538Z,1001.80
2023-05-10T01:48:33.503Z,1001.82
2023-05-10T01:49:33.469Z,1001.85
2023-05-10T01:50:33.471Z,1001.90
2023-05-10T01:51:33.425Z,1001.91
2023-05-10T01:52:33.411Z,1001.89
2023-05-10T01:53:33.388Z,1001.90
2023-05-10T01:54:33.360Z,1001.94
2023-05-10T01:55:33.334Z,1001.94
2023-05-10T01:56:33.326Z,1001.95
2023-05-10T01:57:33.296Z,1001.94
2023-05-10T01:58:33.275Z,1001.95
2023-05-10T01:59:33.252Z,1001.98
2023-05-10T02:00:33.270Z,1001.97
2023-05-10T02:01:33.222Z,1001.97
2023-05-10T02:02:33.217Z,1002.01
2023-05-10T02:03:33.252Z,1002.01
2023-05-10T02:04:33.143Z,1002.00
2023-05-10T02:05:33.119Z,1002.00
2023-05-10T02:06:33.118Z,1002.03
2023-05-10T02:07:33.069Z,1002.04
2023-05-10T02:08:33.057Z,1002.00
2023-05-10T02:09:33.026Z,1002.07
2023-05-10T02:10:33.025Z,1002.05
2023-05-10T02:11:32.994Z,1002.05
2023-05-10T02:12:32.962Z,1002.07
2023-05-10T02:13:32.986Z,1002.07
2023-05-10T02:14:32.917Z,1002.11
2023-05-10T02:15:32.903Z,1002.10
2023-05-10T02:16:32.917Z,1002.10
2023-05-10T02:17:32.907Z,1002.09
2023-05-10T02:18:32.820Z,1002.10
2023-05-10T02:19:32.806Z,1002.15
2023-05-10T02:20:32.781Z,1002.10
2023-05-10T02:21:32.756Z,1002.13
2023-05-10T02:22:32.760Z,1002.12
2023-05-10T02:23:32.717Z,1002.17
2023-05-10T02:24:32.695Z,1002.15
2023-05-10T02:25:32.672Z,1002.19
2023-05-10T02:26:32.650Z,1002.18
2023-05-10T02:27:32.702Z,1002.22
2023-05-10T02:28:32.606Z,1002.21
2023-05-10T02:29:32.585Z,1002.21
2023-05-10T02:30:32.568Z,1002.25
2023-05-10T02:31:32.559Z,1002.24
2023-05-10T02:32:32.559Z,1002.25
2023-05-10T02:33:32.486Z,1002.28
2023-05-10T02:34:32.470Z,1002.28
2023-05-10T02:35:32.440Z,1002.25
2023-05-10T02:36:32.478Z,1002.31
2023-05-10T02:37:32.397Z,1002.29
2023-05-10T02:38:32.481Z,1002.29
2023-05-10T02:39:32.352Z,1002.29
2023-05-10T02:40:32.335Z,1002.24
2023-05-10T02:41:32.308Z,1002.27
2023-05-10T02:42:32.282Z,1002.29
2023-05-10T02:43:32.268Z,1002.23
2023-05-10T02:44:32.300Z,1002.26
2023-05-10T02:45:32.237Z,1002.27
2023-05-10T02:46:32.363Z,1002.27
2023-05-10T02:47:32.191Z,1002.24
2023-05-10T02:48:32.153Z,1002.24
2023-05-10T02:49:32.140Z,1002.21
2023-05-10T02:50:32.117Z,1002.21
2023-05-10T02:51:32.084Z,1002.21
2023-05-10T02:52:32.069Z,1002.21
2023-05-10T02:53:32.052Z,1002.25
2023-05-10T02:54:32.052Z,1002.20
2023-05-10T02:55:32.002Z,1002.24
2023-05-10T02:56:31.990Z,1002.23
2023-05-10T02:57:31.952Z,1002.22
2023-05-10T02:58:31.927Z,1002.28
2023-05-10T02:59:31.919Z,1002.25
2023-05-10T03:00:31.900Z,1002.25
2023-05-10T03:01:31.893Z,1002.26
2023-05-10T03:02:32.058Z,1002.25
2023-05-10T03:03:31.815Z,1002.27
2023-05-10T03:04:31.828Z,1002.26
2023-05-10T03:05:31.786Z,1002.26
2023-05-10T03:06:31.759Z,1002.25
2023-05-10T03:07:31.731Z,1002.29
2023-05-10T03:08:31.712Z,1002.24
2023-05-10T03:09:31.692Z,1002.21
2023-05-10T03:10:31.678Z,1002.26
2023-05-10T03:11:31.646Z,1002.26
2023-05-10T03:12:31.663Z,1002.24
2023-05-10T03:13:31.718Z,1002.26
2023-05-10T03:14:31.570Z,1002.32
2023-05-10T03:15:31.544Z,1002.30
2023-05-10T03:16:31.549Z,1002.34
2023-05-10T03:17:31.548Z,1002.29
2023-05-10T03:18:31.485Z,1002.31
2023-05-10T03:19:31.471Z,1002.31
2023-05-10T03:20:31.438Z,1002.32
2023-05-10T03:21:31.429Z,1002.35
2023-05-10T03:22:31.392Z,1002.36
2023-05-10T03:23:31.368Z,1002.38
2023-05-10T03:24:31.351Z,1002.34
2023-05-10T03:25:31.318Z,1002.35
2023-05-10T03:26:31.324Z,1002.38
2023-05-10T03:27:31.285Z,1002.40
2023-05-10T03:28:31.270Z,1002.41
2023-05-10T03:29:31.238Z,1002.40
2023-05-10T03:30:31.216Z,1002.41
2023-05-10T03:31:31.230Z,1002.44
2023-05-10T03:32:31.200Z,1002.42
2023-05-10T03:33:31.159Z,1002.46
2023-05-10T03:34:31.134Z,1002.49
2023-05-10T03:35:31.106Z,1002.51
2023-05-10T03:36:31.083Z,1002.51
2023-05-10T03:37:31.064Z,1002.52
2023-05-10T03:38:31.035Z,1002.52
2023-05-10T03:39:31.006Z,1002.54
2023-05-10T03:40:30.986Z,1002.53
2023-05-10T03:41:30.981Z,1002.53
2023-05-10T03:42:30.966Z,1002.49
2023-05-10T03:43:30.924Z,1002.49
2023-05-10T03:44:30.902Z,1002.55
2023-05-10T03:45:30.876Z,1002.52
2023-05-10T03:46:30.896Z,1002.52
2023-05-10T03:47:30.938Z,1002.56
2023-05-10T03:48:30.812Z,1002.55
2023-05-10T03:49:30.791Z,1002.59
2023-05-10T03:50:30.771Z,1002.52
2023-05-10T03:51:30.751Z,1002.59
2023-05-10T03:52:30.726Z,1002.60
2023-05-10T03:53:30.717Z,1002.58
2023-05-10T03:54:30.672Z,1002.63
2023-05-10T03:55:30.663Z,1002.64
2023-05-10T03:56:30.629Z,1002.66
2023-05-10T03:57:30.609Z,1002.69
2023-05-10T03:58:30.646Z,1002.72
2023-05-10T03:59:30.560Z,1002.72
2023-05-10T04:00:30.539Z,1002.72
2023-05-10T04:01:30.521Z,1002.75
2023-05-10T04:02:30.611Z,1002.77
2023-05-10T04:03:30.557Z,1002.78
2023-05-10T04:04:30.451Z,1002.77
2023-05-10T04:05:30.434Z,1002.78
2023-05-10T04:06:30.420Z,1002.75
2023-05-10T04:07:30.392Z,1002.77
2023-05-10T04:08:30.360Z,1002.79
2023-05-10T04:09:30.338Z,1002.79
2023-05-10T04:10:30.323Z,1002.80
2023-05-10T04:11:30.293Z,1002.77
2023-05-10T04:12:30.275Z,1002.77
2023-05-10T04:13:30.271Z,1002.80
2023-05-10T04:14:30.320Z,1002.79
2023-05-10T04:15:30.207Z,1002.81
2023-05-10T04:16:30.223Z,1002.82
2023-05-10T04:17:30.365Z,1002.81
2023-05-10T04:18:30.142Z,1002.80
2023-05-10T04:19:30.121Z,1002.81
2023-05-10T04:20:30.098Z,1002.83
2023-05-10T04:21:30.068Z,1002.81
2023-05-10T04:22:30.047Z,1002.84
2023-05-10T04:23:30.040Z,1002.84
2023-05-10T04:24:30.005Z,1002.83
2023-05-10T04:25:29.979Z,1002.83
2023-05-10T04:26:29.968Z,1002.80
2023-05-10T04:27:29.934Z,1002.82
2023-05-10T04:28:29.928Z,1002.81
2023-05-10T04:29:29.893Z,1002.77
2023-05-10T04:30:29.887Z,1002.77
2023-05-10T04:31:29.844Z,1002.81
2023-05-10T04:32:29.870Z,1002.82
2023-05-10T04:33:29.802Z,1002.77
2023-05-10T04:34:29.780Z,1002.75
2023-05-10T04:35:29.781Z,1002.76
2023-05-10T04:36:29.731Z,1002.77
2023-05-10T04:37:29.715Z,1002.73
2023-05-10T04:38:29.688Z,1002.78
2023-05-10T04:39:29.667Z,1002.76
2023-05-10T04:40:29.655Z,1002.76
2023-05-10T04:41:29.645Z,1002.79
2023-05-10T04:42:29.606Z,1002.77
2023-05-10T04:43:29.573Z,1002.81
2023-05-10T04:44:29.553Z,1002.81
2023-05-10T04:45:29.535Z,1002.85
2023-05-10T04:46:29.566Z,1002.87
2023-05-10T04:47:29.507Z,1002.90
2023-05-10T04:48:29.464Z,1002.89
2023-05-10T04:49:29.440Z,1002.91
2023-05-10T04:50:29.418Z,1002.92
2023-05-10T04:51:29.412Z,1002.95
2023-05-10T04:52:29.383Z,1002.96
2023-05-10T04:53:29.360Z,1002.95
2023-05-10T04:54:29.330Z,1002.97
2023-05-10T04:55:29.309Z,1002.96
2023-05-10T04:56:29.291Z,1002.97
2023-05-10T04:57:29.268Z,1003.01
2023-05-10T04:58:29.246Z,1003.01
2023-05-10T04:59:29.218Z,1002.99
2023-05-10T05:00:29.206Z,1003.04
2023-05-10T05:01:29.267Z,1003.04
2023-05-10T05:02:29.230Z,1003.04
2023-05-10T05:03:29.267Z,1003.07
2023-05-10T05:04:29.103Z,1003.09
2023-05-10T05:05:29.089Z,1003.07
2023-05-10T05:06:29.073Z,1003.06
2023-05-10T05:07:29.040Z,1003.11
2023-05-10T05:08:29.018Z,1003.12
2023-05-10T05:09:29.000Z,1003.10
2023-05-10T05:10:28.974Z,1003.12
2023-05-10T05:11:28.955Z,1003.13
2023-05-10T05:12:28.928Z,1003.14
2023-05-10T05:13:28.926Z,1003.15
2023-05-10T05:14:28.881Z,1003.18
2023-05-10T05:15:28.872Z,1003.15
2023-05-10T05:16:28.889Z,1003.17
2023-05-10T05:17:28.871Z,1003.15
2023-05-10T05:18:28.817Z,1003.17
2023-05-10T05:19:28.790Z,1003.17
2023-05-10T05:20:28.746Z,1003.22
2023-05-10T05:21:28.723Z,1003.20
2023-05-10T05:22:28.700Z,1003.22
2023-05-10T05:23:28.696Z,1003.21
2023-05-10T05:24:28.659Z,1003.19
2023-05-10T05:25:28.643Z,1003.19
2023-05-10T05:26:28.612Z,1003.16
2023-05-10T05:27:28.589Z,1003.16
2023-05-10T05:28:28.575Z,1003.17
2023-05-10T05:29:28.553Z,1003.23
2023-05-10T05:30:28.531Z,1003.21
2023-05-10T05:31:28.575Z,1003.23
2023-05-10T05:32:28.500Z,1003.21
2023-05-10T05:33:28.459Z,1003.23
2023-05-10T05:34:28.454Z,1003.24
2023-05-10T05:35:28.415Z,1003.27
2023-05-10T05:36:28.389Z,1003.27
2023-05-10T05:37:28.369Z,1003.29
2023-05-10T05:38:28.344Z,1003.32
2023-05-10T05:39:28.322Z,1003.31
2023-05-10T05:40:28.299Z,1003.32
2023-05-10T05:41:28.300Z,1003.37
2023-05-10T05:42:28.271Z,1003.40
2023-05-10T05:43:28.249Z,1003.35
2023-05-10T05:44:28.203Z,1003.37
2023-05-10T05:45:28.192Z,1003.39
2023-05-10T05:46:28.188Z,1003.41
2023-05-10T05:47:28.160Z,1003.37
2023-05-10T05:48:28.121Z,1003.39
2023-05-10T05:49:28.112Z,1003.39
2023-05-10T05:50:28.093Z,1003.34
2023-05-10T05:51:28.052Z,1003.33
2023-05-10T05:52:28.025Z,1003.37
2023-05-10T05:53:28.009Z,1003.32
2023-05-10T05:54:28.004Z,1003.33
2023-05-10T05:55:27.964Z,1003.35
2023-05-10T05:56:27.948Z,1003.36
2023-05-10T05:57:27.922Z,1003.37
2023-05-10T05:58:27.914Z,1003.36
2023-05-10T05:59:27.867Z,1003.35
2023-05-10T06:00:27.956Z,1003.37
2023-05-10T06:01:27.825Z,1003.41
2023-05-10T06:02:27.920Z,1003.42
2023-05-10T06:03:27.853Z,1003.45
2023-05-10T06:04:27.893Z,1003.44
2023-05-10T06:05:27.762Z,1003.42
2023-05-10T06:06:27.742Z,1003.47
2023-05-10T06:07:27.703Z,1003.43
2023-05-10T06:08:27.671Z,1003.47
2023-05-10T06:09:27.654Z,1003.46
2023-05-10T06:10:27.657Z,1003.49
2023-05-10T06:11:27.615Z,1003.54
2023-05-10T06:12:27.591Z,1003.56
2023-05-10T06:13:27.681Z,1003.62
2023-05-10T06:14:27.543Z,1003.61
2023-05-10T06:15:27.528Z,1003.63
2023-05-10T06:16:27.528Z,1003.60
2023-05-10T06:17:27.499Z,1003.55
2023-05-10T06:18:27.457Z,1003.50
2023-05-10T06:19:27.450Z,1003.48
2023-05-10T06:20:27.650Z,1003.50
2023-05-10T06:21:27.389Z,1003.51
2023-05-10T06:22:27.545Z,1003.56
2023-05-10T06:23:27.349Z,1003.55
2023-05-10T06:24:27.317Z,1003.55
2023-05-10T06:25:27.300Z,1003.55
2023-05-10T06:26:27.271Z,1003.64
2023-05-10T06:27:27.257Z,1003.61
2023-05-10T06:28:27.219Z,1003.64
2023-05-10T06:29:27.225Z,1003.66
2023-05-10T06:30:27.212Z,1003.68
2023-05-10T06:31:27.244Z,1003.72
2023-05-10T06:32:27.198Z,1003.73
2023-05-10T06:33:27.119Z,1003.74
2023-05-10T06:34:27.087Z,1003.74
2023-05-10T06:35:27.072Z,1003.79
2023-05-10T06:36:27.040Z,1003.77
2023-05-10T06:37:27.046Z,1003.78
2023-05-10T06:38:27.018Z,1003.80
2023-05-10T06:39:26.986Z,1003.82
2023-05-10T06:40:26.951Z,1003.85
2023-05-10T06:41:26.934Z,1003.84
2023-05-10T06:42:26.910Z,1003.84
2023-05-10T06:43:26.897Z,1003.83
2023-05-10T06:44:26.858Z,1003.82
2023-05-10T06:45:26.847Z,1003.80
2023-05-10T06:46:26.934Z,1003.83
2023-05-10T06:47:26.874Z,1003.81
2023-05-10T06:48:26.780Z,1003.82
2023-05-10T06:49:26.754Z,1003.84
2023-05-10T06:50:26.729Z,1003.85
2023-05-10T06:51:26.723Z,1003.81
2023-05-10T06:52:26.685Z,1003.86
2023-05-10T06:53:26.673Z,1003.84
2023-05-10T06:54:26.662Z,1003.83
2023-05-10T06:55:26.618Z,1003.81
2023-05-10T06:56:26.605Z,1003.82
2023-05-10T06:57:31.896Z,1003.81
2023-05-10T06:58:26.552Z,1003.83
2023-05-10T06:59:26.597Z,1003.84
2023-05-10T07:00:26.623Z,1003.85
2023-05-10T07:01:26.599Z,1003.87
2023-05-10T07:02:26.658Z,1003.86
2023-05-10T07:03:26.435Z,1003.87
2023-05-10T07:04:26.458Z,1003.87
2023-05-10T07:05:26.428Z,1003.85
2023-05-10T07:06:33.462Z,1003.86
2023-05-10T07:07:26.345Z,1003.84
2023-05-10T07:08:26.325Z,1003.82
2023-05-10T07:09:26.309Z,1003.86
2023-05-10T07:10:26.300Z,1003.93
2023-05-10T07:11:26.277Z,1003.93
2023-05-10T07:12:26.463Z,1003.96
2023-05-10T07:13:26.243Z,1003.97
2023-05-10T07:14:26.209Z,1003.97
2023-05-10T07:15:26.176Z,1004.00
2023-05-10T07:16:26.188Z,1004.04
2023-05-10T07:17:26.238Z,1004.04
2023-05-10T07:18:26.220Z,1004.01
2023-05-10T07:19:26.082Z,1004.03
2023-05-10T07:20:26.055Z,1004.03
2023-05-10T07:21:26.051Z,1004.09
2023-05-10T07:22:26.019Z,1004.06
2023-05-10T07:23:26.007Z,1004.08
2023-05-10T07:24:25.974Z,1004.07
2023-05-10T07:25:25.957Z,1004.07
2023-05-10T07:26:25.945Z,1004.13
2023-05-10T07:27:25.909Z,1004.13
2023-05-10T07:28:25.883Z,1004.17
2023-05-10T07:29:25.874Z,1004.16
2023-05-10T07:30:25.866Z,1004.12
2023-05-10T07:31:25.819Z,1004.14
2023-05-10T07:32:25.896Z,1004.17
2023-05-10T07:33:25.773Z,1004.18
2023-05-10T07:34:25.741Z,1004.14
2023-05-10T07:35:25.728Z,1004.15
2023-05-10T07:36:25.700Z,1004.13
2023-05-10T07:37:25.679Z,1004.11
2023-05-10T07:38:25.691Z,1004.18
2023-05-10T07:39:27.739Z,1004.14
2023-05-10T07:40:25.607Z,1004.16
2023-05-10T07:41:25.597Z,1004.17
2023-05-10T07:42:25.587Z,1004.21
2023-05-10T07:43:25.553Z,1004.23
2023-05-10T07:44:25.522Z,1004.24
2023-05-10T07:45:25.507Z,1004.28
2023-05-10T07:46:25.545Z,1004.29
2023-05-10T07:47:25.489Z,1004.26
2023-05-10T07:48:25.432Z,1004.25
2023-05-10T07:49:25.418Z,1004.28
2023-05-10T07:50:25.401Z,1004.28
2023-05-10T07:51:25.374Z,1004.25
2023-05-10T07:52:25.351Z,1004.30
2023-05-10T07:53:25.327Z,1004.25
2023-05-10T07:54:25.321Z,1004.30
2023-05-10T07:55:25.281Z,1004.32
2023-05-10T07:56:25.263Z,1004.25
2023-05-10T07:57:25.237Z,1004.25
2023-05-10T07:58:25.271Z,1004.23
2023-05-10T07:59:25.194Z,1004.19
2023-05-10T08:00:25.171Z,1004.24
2023-05-10T08:01:25.162Z,1004.26
2023-05-10T08:02:25.213Z,1004.26
2023-05-10T08:03:25.173Z,1004.23
2023-05-10T08:04:25.152Z,1004.24
2023-05-10T08:05:25.059Z,1004.29
2023-05-10T08:06:25.046Z,1004.21
2023-05-10T08:07:25.033Z,1004.20
2023-05-10T08:08:25.001Z,1004.28
2023-05-10T08:09:25.336Z,1004.26
2023-05-10T08:10:24.962Z,1004.31
2023-05-10T08:11:24.938Z,1004.29
2023-05-10T08:12:24.904Z,1004.29
2023-05-10T08:13:24.893Z,1004.24
2023-05-10T08:14:24.926Z,1004.22
2023-05-10T08:15:24.841Z,1004.27
2023-05-10T08:16:24.859Z,1004.26
2023-05-10T08:17:24.954Z,1004.24
2023-05-10T08:18:24.792Z,1004.27
2023-05-10T08:19:24.749Z,1004.28
2023-05-10T08:20:24.740Z,1004.34
2023-05-10T08:21:24.720Z,1004.36
2023-05-10T08:22:24.688Z,1004.35
2023-05-10T08:23:24.668Z,1004.36
2023-05-10T08:24:24.664Z,1004.39
2023-05-10T08:25:24.620Z,1004.39
2023-05-10T08:26:24.616Z,1004.38
2023-05-10T08:27:24.580Z,1004.37
2023-05-10T08:28:24.566Z,1004.39
2023-05-10T08:29:25.406Z,1004.43
2023-05-10T08:30:24.661Z,1004.42
2023-05-10T08:31:24.562Z,1004.38
2023-05-10T08:32:24.513Z,1004.40
2023-05-10T08:33:24.454Z,1004.43
2023-05-10T08:34:24.640Z,1004.40
2023-05-10T08:35:24.409Z,1004.41
2023-05-10T08:36:24.389Z,1004.42
2023-05-10T08:37:24.362Z,1004.43
2023-05-10T08:38:24.344Z,1004.44
2023-05-10T08:39:30.346Z,1004.46
2023-05-10T08:40:24.322Z,1004.47
2023-05-10T08:41:24.275Z,1004.48
2023-05-10T08:42:24.255Z,1004.46
2023-05-10T08:43:24.241Z,1004.48
2023-05-10T08:44:24.218Z,1004.51
2023-05-10T08:45:24.201Z,1004.54
2023-05-10T08:46:24.267Z,1004.53
2023-05-10T08:47:24.176Z,1004.53
2023-05-10T08:48:24.132Z,1004.53
2023-05-10T08:49:24.126Z,1004.55
2023-05-10T08:50:24.081Z,1004.59
2023-05-10T08:51:24.057Z,1004.51
2023-05-10T08:52:24.046Z,1004.54
2023-05-10T08:53:24.017Z,1004.58
2023-05-10T08:54:24.001Z,1004.58
2023-05-10T08:55:23.975Z,1004.67
2023-05-10T08:56:23.961Z,1004.56
2023-05-10T08:57:23.936Z,1004.58
2023-05-10T08:58:23.917Z,1004.60
2023-05-10T08:59:23.890Z,1004.61
2023-05-10T09:00:23.901Z,1004.61
2023-05-10T09:01:23.920Z,1004.62
2023-05-10T09:02:23.994Z,1004.64
2023-05-10T09:03:23.807Z,1004.72
2023-05-10T09:04:23.989Z,1004.71
2023-05-10T09:05:23.891Z,1004.66
2023-05-10T09:06:23.741Z,1004.70
2023-05-10T09:07:23.721Z,1004.65
2023-05-10T09:08:23.700Z,1004.63
2023-05-10T09:09:23.675Z,1004.68
2023-05-10T09:10:23.673Z,1004.65
2023-05-10T09:11:23.633Z,1004.68
2023-05-10T09:12:23.619Z,1004.68
2023-05-10T09:13:23.595Z,1004.71
2023-05-10T09:14:23.567Z,1004.72
2023-05-10T09:15:23.550Z,1004.70
2023-05-10T09:16:23.583Z,1004.70
2023-05-10T09:17:23.742Z,1004.80
2023-05-10T09:18:24.321Z,1004.84
2023-05-10T09:19:23.470Z,1004.87
2023-05-10T09:20:23.450Z,1004.84
2023-05-10T09:21:23.414Z,1004.83
2023-05-10T09:22:23.401Z,1004.77
2023-05-10T09:23:23.374Z,1004.77
2023-05-10T09:24:23.350Z,1004.79
2023-05-10T09:25:23.339Z,1004.80
2023-05-10T09:26:23.315Z,1004.80
2023-05-10T09:27:23.290Z,1004.80
2023-05-10T09:28:23.268Z,1004.82
2023-05-10T09:29:23.251Z,1004.80
2023-05-10T09:30:23.235Z,1004.83
2023-05-10T09:31:23.382Z,1004.90
2023-05-10T09:32:23.253Z,1004.90
2023-05-10T09:33:23.161Z,1004.88
2023-05-10T09:34:23.265Z,1004.89
2023-05-10T09:35:23.115Z,1004.97
2023-05-10T09:36:23.104Z,1004.92
2023-05-10T09:37:23.078Z,1004.97
2023-05-10T09:38:23.054Z,1004.93
2023-05-10T09:39:23.034Z,1004.92
2023-05-10T09:40:23.017Z,1004.87
2023-05-10T09:41:22.992Z,1004.87
2023-05-10T09:42:22.974Z,1004.88
2023-05-10T09:43:22.952Z,1004.93
2023-05-10T09:44:22.925Z,1004.90
2023-05-10T09:45:22.912Z,1004.97
2023-05-10T09:46:22.911Z,1004.96
2023-05-10T09:47:22.874Z,1004.95
2023-05-10T09:48:22.837Z,1004.98
2023-05-10T09:49:22.817Z,1004.98
2023-05-10T09:50:22.827Z,1005.04
2023-05-10T09:51:22.792Z,1005.03
2023-05-10T09:52:22.760Z,1005.08
2023-05-10T09:53:22.738Z,1005.06
2023-05-10T09:54:22.719Z,1005.09
2023-05-10T09:55:22.728Z,1005.07
2023-05-10T09:56:22.678Z,1005.05
2023-05-10T09:57:22.658Z,1005.08
2023-05-10T09:58:22.643Z,1005.08
2023-05-10T09:59:22.612Z,1005.10
2023-05-10T10:00:22.595Z,1005.09
2023-05-10T10:01:22.622Z,1005.07
2023-05-10T10:02:22.604Z,1005.03
2023-05-10T10:03:22.531Z,1005.01
2023-05-10T10:04:22.602Z,1005.02
2023-05-10T10:05:22.479Z,1005.03
2023-05-10T10:06:29.539Z,1004.98
2023-05-10T10:07:22.464Z,1004.98
2023-05-10T10:08:22.428Z,1005.02
2023-05-10T10:09:22.399Z,1005.02
2023-05-10T10:10:22.383Z,1005.00
2023-05-10T10:11:22.365Z,1005.05
2023-05-10T10:12:22.344Z,1005.01
2023-05-10T10:13:22.319Z,1005.00
2023-05-10T10:14:22.300Z,1004.94
2023-05-10T10:15:22.466Z,1004.97
2023-05-10T10:16:22.316Z,1004.98
2023-05-10T10:17:22.324Z,1004.98
2023-05-10T10:18:22.245Z,1004.97
2023-05-10T10:19:22.186Z,1005.01
2023-05-10T10:20:22.184Z,1005.08
2023-05-10T10:21:22.142Z,1005.07
2023-05-10T10:22:22.146Z,1005.06
2023-05-10T10:23:22.103Z,1005.09
2023-05-10T10:24:22.090Z,1005.07
2023-05-10T10:25:22.060Z,1005.10
2023-05-10T10:26:22.072Z,1005.06
2023-05-10T10:27:22.018Z,1005.03
2023-05-10T10:28:21.999Z,1005.03
2023-05-10T10:29:21.980Z,1005.04
2023-05-10T10:30:21.966Z,1005.04
2023-05-10T10:31:21.957Z,1005.05
2023-05-10T10:32:21.930Z,1005.04
2023-05-10T10:33:28.408Z,1005.05
2023-05-10T10:34:21.919Z,1005.05
2023-05-10T10:35:21.849Z,1005.04
2023-05-10T10:36:21.846Z,1005.04
2023-05-10T10:37:21.808Z,1005.04
2023-05-10T10:38:21.810Z,1005.04
2023-05-10T10:39:21.767Z,1005.07
2023-05-10T10:40:21.745Z,1005.11
2023-05-10T10:41:21.724Z,1005.07
2023-05-10T10:42:21.700Z,1005.07
2023-05-10T10:43:21.682Z,1005.03
2023-05-10T10:44:21.667Z,1005.01
2023-05-10T10:45:21.636Z,1005.08
2023-05-10T10:46:21.657Z,1005.09
2023-05-10T10:47:21.604Z,1005.08
2023-05-10T10:48:21.582Z,1005.09
2023-05-10T10:49:21.652Z,1005.13
2023-05-10T10:50:21.533Z,1005.10
2023-05-10T10:51:21.512Z,1005.07
2023-05-10T10:52:21.531Z,1005.12
2023-05-10T10:53:21.516Z,1005.21
2023-05-10T10:54:21.471Z,1005.05
2023-05-10T10:55:21.432Z,1005.05
2023-05-10T10:56:21.428Z,1005.10
2023-05-10T10:57:21.392Z,1004.93
2023-05-10T10:58:21.377Z,1005.01
2023-05-10T10:59:21.349Z,1004.99
2023-05-10T11:00:21.331Z,1005.00
2023-05-10T11:01:21.340Z,1004.99
2023-05-10T11:02:21.299Z,1004.97
2023-05-10T11:03:21.256Z,1004.97
2023-05-10T11:04:21.312Z,1004.98
2023-05-10T11:05:21.221Z,1005.01
2023-05-10T11:06:21.198Z,1005.01
2023-05-10T11:07:21.183Z,1005.00
2023-05-10T11:08:21.171Z,1005.02
2023-05-10T11:09:21.139Z,1005.06
2023-05-10T11:10:21.134Z,1005.10
2023-05-10T11:11:21.089Z,1005.09
2023-05-10T11:12:21.069Z,1005.12
2023-05-10T11:13:21.050Z,1005.13
2023-05-10T11:14:21.030Z,1005.23
2023-05-10T11:15:21.009Z,1005.24
2023-05-10T11:16:21.097Z,1005.14
2023-05-10T11:17:20.971Z,1005.05
2023-05-10T11:18:21.030Z,1005.05
2023-05-10T11:19:20.935Z,1005.06
2023-05-10T11:20:20.963Z,1005.08
2023-05-10T11:21:20.880Z,1005.14
2023-05-10T11:22:20.861Z,1005.13
2023-05-10T11:23:20.839Z,1005.14
2023-05-10T11:24:20.820Z,1005.19
2023-05-10T11:25:20.809Z,1005.19
2023-05-10T11:26:20.800Z,1005.28
2023-05-10T11:27:20.769Z,1005.32
2023-05-10T11:28:20.857Z,1005.32
2023-05-10T11:29:20.718Z,1005.32
2023-05-10T11:30:20.980Z,1005.34
2023-05-10T11:31:20.799Z,1005.31
2023-05-10T11:32:20.683Z,1005.38
2023-05-10T11:33:20.748Z,1005.36
2023-05-10T11:34:20.684Z,1005.36
2023-05-10T11:35:20.618Z,1005.36
2023-05-10T11:36:20.642Z,1005.41
2023-05-10T11:37:20.544Z,1005.35
2023-05-10T11:38:20.539Z,1005.36
2023-05-10T11:39:20.517Z,1005.39
2023-05-10T11:40:20.525Z,1005.39
2023-05-10T11:41:20.465Z,1005.42
2023-05-10T11:42:20.465Z,1005.42
2023-05-10T11:43:20.426Z,1005.43
2023-05-10T11:44:20.411Z,1005.44
2023-05-10T11:45:20.397Z,1005.43
2023-05-10T11:46:20.378Z,1005.38
2023-05-10T11:47:20.343Z,1005.47
2023-05-10T11:48:20.392Z,1005.46
2023-05-10T11:49:20.294Z,1005.42
2023-05-10T11:50:20.373Z,1005.46
2023-05-10T11:51:20.250Z,1005.48
2023-05-10T11:52:20.248Z,1005.44
2023-05-10T11:53:20.211Z,1005.47
2023-05-10T11:54:20.193Z,1005.46
2023-05-10T11:55:20.170Z,1005.53
2023-05-10T11:56:20.170Z,1005.51
2023-05-10T11:57:20.141Z,1005.50
2023-05-10T11:58:20.125Z,1005.51
2023-05-10T11:59:20.086Z,1005.51
2023-05-10T12:00:20.388Z,1005.51
2023-05-10T12:01:20.035Z,1005.59
2023-05-10T12:02:20.141Z,1005.56
2023-05-10T12:03:20.066Z,1005.54
2023-05-10T12:04:20.270Z,1005.55
2023-05-10T12:05:19.970Z,1005.61